createdAt,value
2023-01-07T00:01:22.812Z,97.67
2023-01-07T00:03:50.424Z,97.68
2023-01-07T00:06:28.492Z,97.51
2023-01-07T00:08:56.537Z,97.49
2023-01-07T00:11:37.478Z,97.61
2023-01-07T00:14:06.074Z,97.25
2023-01-07T00:16:33.712Z,97.35
2023-01-07T00:19:01.597Z,97.56
2023-01-07T00:21:29.136Z,97.48
2023-01-07T00:23:57.193Z,97.45
2023-01-07T00:26:25.776Z,97.36
2023-01-07T00:28:53.394Z,97.66
2023-01-07T00:31:25.875Z,97.77
2023-01-07T00:33:59.002Z,97.90
2023-01-07T00:36:30.002Z,97.68
2023-01-07T00:39:06.589Z,97.79
2023-01-07T00:41:33.180Z,97.89
2023-01-07T00:44:00.052Z,97.63
2023-01-07T00:46:26.534Z,97.59
2023-01-07T00:48:53.195Z,97.61
2023-01-07T00:51:19.718Z,97.93
2023-01-07T00:53:47.196Z,97.83
2023-01-07T00:56:15.082Z,97.78
2023-01-07T00:58:42.000Z,97.68
2023-01-07T01:01:10.721Z,97.82
2023-01-07T01:03:38.266Z,98.27
2023-01-07T01:06:12.637Z,98.25
2023-01-07T01:08:42.235Z,98.38
2023-01-07T01:11:09.985Z,98.25
2023-01-07T01:13:37.213Z,98.22
2023-01-07T01:16:09.432Z,98.42
2023-01-07T01:18:36.591Z,98.22
2023-01-07T01:21:08.118Z,98.44
2023-01-07T01:23:35.113Z,98.04
2023-01-07T01:26:12.443Z,98.12
2023-01-07T01:28:39.103Z,98.20
2023-01-07T01:31:08.129Z,98.30
2023-01-07T01:33:34.624Z,98.45
2023-01-07T01:36:05.897Z,98.10
2023-01-07T01:38:32.444Z,98.07
2023-01-07T01:40:58.924Z,98.39
2023-01-07T01:43:37.767Z,98.49
2023-01-07T01:46:16.211Z,98.33
2023-01-07T01:49:00.402Z,98.59
2023-01-07T01:51:34.453Z,98.30
2023-01-07T01:54:06.042Z,98.48
2023-01-07T01:56:35.864Z,98.23
2023-01-07T01:59:10.169Z,98.31
2023-01-07T02:01:37.407Z,98.50
2023-01-07T02:04:12.889Z,98.11
2023-01-07T02:06:50.578Z,98.37
2023-01-07T02:09:17.033Z,98.64
2023-01-07T02:12:05.487Z,98.70
2023-01-07T02:15:01.320Z,98.68
2023-01-07T02:18:04.973Z,98.83
2023-01-07T02:21:08.979Z,98.91
2023-01-07T02:23:56.464Z,98.96
2023-01-07T02:26:57.135Z,99.18
2023-01-07T02:30:05.615Z,98.87
2023-01-07T02:32:45.573Z,99.00
2023-01-07T02:35:46.079Z,99.08
2023-01-07T02:38:18.621Z,99.37
2023-01-07T02:40:57.234Z,99.66
2023-01-07T02:43:23.483Z,99.60
2023-01-07T02:45:59.037Z,99.77
2023-01-07T02:48:26.325Z,100.00
2023-01-07T02:50:52.664Z,100.00
2023-01-07T02:53:21.081Z,99.65
2023-01-07T02:56:22.738Z,99.86
2023-01-07T02:59:04.143Z,99.63
2023-01-07T03:02:00.953Z,99.84
2023-01-07T03:04:53.434Z,99.84
2023-01-07T03:07:37.261Z,100.00
2023-01-07T03:10:03.885Z,100.00
2023-01-07T03:12:36.895Z,100.00
2023-01-07T03:15:14.380Z,100.00
2023-01-07T03:17:58.009Z,100.00
2023-01-07T03:20:26.029Z,100.00
2023-01-07T03:22:53.617Z,100.00
2023-01-07T03:25:23.224Z,100.00
2023-01-07T03:27:53.399Z,100.00
2023-01-07T03:30:20.976Z,100.00
2023-01-07T03:33:09.421Z,100.00
2023-01-07T03:35:40.098Z,100.00
2023-01-07T03:38:08.831Z,99.73
2023-01-07T03:40:35.443Z,99.84
2023-01-07T03:43:01.860Z,99.38
2023-01-07T03:45:28.852Z,99.74
2023-01-07T03:47:56.752Z,99.59
2023-01-07T03:50:23.886Z,99.54
2023-01-07T03:52:51.056Z,99.69
2023-01-07T03:55:17.698Z,99.57
2023-01-07T03:57:44.143Z,99.62
2023-01-07T04:00:12.871Z,99.31
2023-01-07T04:02:39.237Z,99.47
2023-01-07T04:05:06.142Z,99.37
2023-01-07T04:07:32.622Z,99.47
2023-01-07T04:09:59.034Z,99.79
2023-01-07T04:12:25.385Z,99.55
2023-01-07T04:14:52.094Z,99.40
2023-01-07T04:17:18.580Z,99.47
2023-01-07T04:19:45.357Z,99.31
2023-01-07T04:22:12.139Z,99.43
2023-01-07T04:24:38.608Z,99.79
2023-01-07T04:27:05.214Z,99.81
2023-01-07T04:29:31.975Z,99.68
2023-01-07T04:31:59.363Z,99.66
2023-01-07T04:34:25.784Z,99.46
2023-01-07T04:36:52.229Z,99.48
2023-01-07T04:39:18.769Z,99.49
2023-01-07T04:41:45.197Z,99.33
2023-01-07T04:44:11.927Z,98.99
2023-01-07T04:46:38.599Z,99.09
2023-01-07T04:49:04.949Z,98.84
2023-01-07T04:51:31.341Z,98.46
2023-01-07T04:53:58.391Z,98.78
2023-01-07T04:56:24.728Z,98.48
2023-01-07T04:58:51.155Z,98.27
2023-01-07T05:01:18.039Z,98.03
2023-01-07T05:03:44.486Z,98.00
2023-01-07T05:06:11.089Z,98.05
2023-01-07T05:08:37.553Z,98.21
2023-01-07T05:11:05.235Z,97.77
2023-01-07T05:13:31.990Z,97.90
2023-01-07T05:15:59.251Z,97.83
2023-01-07T05:18:25.765Z,97.59
2023-01-07T05:20:52.255Z,97.73
2023-01-07T05:23:18.722Z,97.66
2023-01-07T05:25:45.133Z,97.56
2023-01-07T05:28:12.270Z,97.48
2023-01-07T05:30:39.362Z,97.61
2023-01-07T05:33:07.314Z,97.91
2023-01-07T05:35:34.776Z,98.05
2023-01-07T05:38:01.185Z,98.17
2023-01-07T05:40:27.547Z,98.13
2023-01-07T05:42:54.338Z,98.47
2023-01-07T05:45:21.940Z,98.75
2023-01-07T05:47:48.666Z,98.65
2023-01-07T05:50:15.214Z,98.50
2023-01-07T05:52:41.586Z,98.47
2023-01-07T05:55:08.719Z,98.57
2023-01-07T05:57:35.176Z,98.68
2023-01-07T06:00:01.550Z,98.67
2023-01-07T06:02:27.931Z,98.51
2023-01-07T06:04:54.310Z,97.81
2023-01-07T06:07:20.745Z,97.84
2023-01-07T06:09:47.327Z,97.65
2023-01-07T06:12:13.717Z,97.30
2023-01-07T06:14:40.085Z,96.78
2023-01-07T06:17:06.500Z,96.44
2023-01-07T06:19:32.842Z,96.53
2023-01-07T06:21:59.558Z,96.30
2023-01-07T06:24:26.009Z,95.54
2023-01-07T06:26:52.404Z,95.70
2023-01-07T06:29:18.760Z,95.59
2023-01-07T06:31:45.221Z,95.23
2023-01-07T06:34:11.597Z,95.54
2023-01-07T06:36:37.953Z,95.03
2023-01-07T06:39:05.013Z,95.37
2023-01-07T06:41:31.319Z,95.09
2023-01-07T06:43:57.737Z,95.39
2023-01-07T06:46:24.686Z,95.33
2023-01-07T06:48:51.158Z,95.69
2023-01-07T06:51:17.617Z,95.23
2023-01-07T06:53:43.995Z,95.16
2023-01-07T06:56:10.363Z,94.91
2023-01-07T06:58:36.678Z,94.79
2023-01-07T07:01:07.579Z,94.83
2023-01-07T07:03:34.041Z,94.73
2023-01-07T07:06:00.722Z,94.66
2023-01-07T07:08:27.245Z,94.60
2023-01-07T07:10:53.733Z,94.42
2023-01-07T07:13:20.222Z,94.24
2023-01-07T07:15:46.758Z,94.30
2023-01-07T07:18:13.159Z,94.26
2023-01-07T07:20:39.489Z,94.22
2023-01-07T07:23:05.943Z,94.02
2023-01-07T07:25:32.377Z,93.74
2023-01-07T07:27:58.874Z,94.06
2023-01-07T07:30:46.630Z,94.16
2023-01-07T07:33:14.676Z,94.29
2023-01-07T07:35:41.182Z,93.87
2023-01-07T07:38:07.525Z,94.02
2023-01-07T07:40:33.902Z,93.71
2023-01-07T07:43:10.462Z,93.81
2023-01-07T07:45:42.108Z,93.96
2023-01-07T07:48:09.713Z,93.81
2023-01-07T07:50:36.310Z,93.50
2023-01-07T07:53:03.192Z,93.52
2023-01-07T07:55:29.753Z,92.92
2023-01-07T07:57:58.204Z,93.11
2023-01-07T08:00:24.697Z,93.28
2023-01-07T08:02:51.115Z,92.96
2023-01-07T08:05:17.627Z,94.11
2023-01-07T08:07:43.996Z,94.18
2023-01-07T08:10:10.529Z,93.58
2023-01-07T08:12:38.313Z,93.49
2023-01-07T08:15:06.409Z,93.90
2023-01-07T08:17:32.980Z,93.27
2023-01-07T08:19:59.471Z,92.61
2023-01-07T08:22:25.902Z,92.03
2023-01-07T08:24:52.242Z,91.65
2023-01-07T08:27:18.709Z,91.16
2023-01-07T08:29:45.195Z,90.98
2023-01-07T08:32:11.613Z,90.80
2023-01-07T08:34:38.050Z,90.56
2023-01-07T08:37:04.522Z,90.59
2023-01-07T08:39:30.939Z,90.96
2023-01-07T08:41:57.395Z,91.81
2023-01-07T08:44:23.885Z,91.31
2023-01-07T08:46:53.070Z,90.38
2023-01-07T08:49:19.448Z,89.52
2023-01-07T08:51:45.939Z,90.13
2023-01-07T08:54:12.322Z,90.10
2023-01-07T08:56:38.725Z,90.10
2023-01-07T08:59:05.293Z,90.05
2023-01-07T09:01:31.894Z,89.95
2023-01-07T09:03:58.358Z,90.30
2023-01-07T09:06:24.921Z,89.81
2023-01-07T09:08:51.422Z,90.03
2023-01-07T09:11:17.991Z,90.09
2023-01-07T09:13:44.470Z,90.34
2023-01-07T09:16:10.973Z,90.12
2023-01-07T09:18:37.339Z,90.25
2023-01-07T09:21:04.113Z,89.80
2023-01-07T09:23:30.859Z,89.72
2023-01-07T09:25:57.270Z,89.95
2023-01-07T09:28:23.751Z,89.68
2023-01-07T09:30:50.190Z,89.13
2023-01-07T09:33:16.657Z,89.21
2023-01-07T09:35:43.158Z,88.99
2023-01-07T09:38:09.644Z,88.85
2023-01-07T09:40:38.908Z,88.58
2023-01-07T09:43:59.864Z,88.04
2023-01-07T09:46:15.304Z,88.05
2023-01-07T09:48:54.134Z,87.87
2023-01-07T09:51:43.754Z,87.41
2023-01-07T09:54:39.645Z,87.54
2023-01-07T09:57:06.449Z,87.26
2023-01-07T09:59:32.894Z,86.87
2023-01-07T10:02:31.850Z,85.71
2023-01-07T10:05:04.028Z,85.66
2023-01-07T10:07:47.088Z,85.72
2023-01-07T10:10:28.745Z,85.38
2023-01-07T10:13:11.730Z,84.76
2023-01-07T10:15:59.492Z,83.97
2023-01-07T10:18:54.190Z,83.92
2023-01-07T10:21:25.311Z,83.68
2023-01-07T10:24:17.630Z,83.17
2023-01-07T10:26:48.286Z,82.83
2023-01-07T10:29:18.820Z,82.95
2023-01-07T10:31:46.951Z,82.92
2023-01-07T10:34:18.075Z,82.49
2023-01-07T10:37:01.672Z,82.58
2023-01-07T10:39:42.850Z,81.96
2023-01-07T10:42:15.463Z,81.80
2023-01-07T10:45:12.149Z,81.34
2023-01-07T10:47:55.986Z,81.40
2023-01-07T10:50:46.803Z,81.67
2023-01-07T10:53:28.613Z,81.75
2023-01-07T10:56:16.323Z,81.75
2023-01-07T10:58:45.003Z,81.59
2023-01-07T11:01:35.448Z,81.25
2023-01-07T11:04:03.292Z,80.98
2023-01-07T11:06:51.026Z,80.62
2023-01-07T11:09:22.644Z,79.95
2023-01-07T11:11:50.772Z,80.02
2023-01-07T11:14:24.494Z,79.76
2023-01-07T11:16:56.892Z,79.39
2023-01-07T11:19:43.046Z,79.21
2023-01-07T11:22:27.724Z,79.41
2023-01-07T11:24:56.088Z,79.11
2023-01-07T11:27:25.584Z,79.16
2023-01-07T11:30:10.801Z,79.04
2023-01-07T11:32:40.365Z,78.80
2023-01-07T11:35:22.459Z,78.46
2023-01-07T11:37:49.656Z,78.59
2023-01-07T11:40:16.073Z,78.62
2023-01-07T11:42:55.347Z,78.66
2023-01-07T11:45:26.992Z,78.76
2023-01-07T11:48:10.173Z,78.83
2023-01-07T11:50:54.980Z,79.08
2023-01-07T11:53:43.799Z,78.89
2023-01-07T11:56:13.168Z,78.64
2023-01-07T11:58:45.513Z,79.02
2023-01-07T12:01:15.937Z,79.11
2023-01-07T12:04:10.961Z,78.86
2023-01-07T12:06:41.205Z,78.76
2023-01-07T12:09:07.540Z,78.67
2023-01-07T12:11:36.561Z,78.55
2023-01-07T12:14:08.612Z,78.34
2023-01-07T12:16:36.326Z,79.28
2023-01-07T12:19:22.626Z,78.80
2023-01-07T12:22:11.237Z,78.56
2023-01-07T12:25:03.986Z,78.25
2023-01-07T12:27:36.403Z,78.23
2023-01-07T12:30:21.944Z,77.92
2023-01-07T12:33:14.001Z,77.39
2023-01-07T12:35:43.799Z,77.22
2023-01-07T12:38:31.249Z,77.23
2023-01-07T12:41:05.739Z,77.09
2023-01-07T12:43:48.026Z,76.78
2023-01-07T12:46:17.704Z,75.81
2023-01-07T12:49:14.107Z,75.51
2023-01-07T12:51:47.637Z,75.31
2023-01-07T12:54:38.626Z,75.30
2023-01-07T12:57:12.903Z,75.51
2023-01-07T13:00:00.021Z,75.01
2023-01-07T13:02:33.083Z,74.62
2023-01-07T13:05:14.221Z,73.72
2023-01-07T13:07:44.328Z,73.77
2023-01-07T13:10:24.858Z,73.42
2023-01-07T13:12:57.005Z,72.93
2023-01-07T13:15:32.959Z,72.60
2023-01-07T13:18:12.717Z,72.74
2023-01-07T13:21:03.596Z,72.51
2023-01-07T13:23:51.895Z,71.96
2023-01-07T13:26:35.472Z,72.01
2023-01-07T13:29:24.427Z,71.80
2023-01-07T13:32:45.678Z,71.51
2023-01-07T13:35:25.053Z,71.37
2023-01-07T13:38:08.932Z,71.32
2023-01-07T13:40:44.376Z,71.18
2023-01-07T13:43:44.872Z,71.56
2023-01-07T13:46:19.317Z,71.36
2023-01-07T13:48:54.013Z,71.42
2023-01-07T13:51:36.575Z,71.33
2023-01-07T13:54:03.483Z,71.60
2023-01-07T13:56:33.887Z,72.07
2023-01-07T13:59:00.658Z,71.95
2023-01-07T14:01:32.971Z,71.89
2023-01-07T14:04:06.959Z,71.99
2023-01-07T14:06:44.139Z,71.61
2023-01-07T14:09:16.997Z,71.59
2023-01-07T14:12:08.563Z,71.80
2023-01-07T14:15:06.260Z,71.93
2023-01-07T14:18:17.985Z,71.66
2023-01-07T14:20:48.536Z,71.61
2023-01-07T14:23:29.650Z,71.32
2023-01-07T14:26:21.364Z,71.22
2023-01-07T14:29:16.481Z,71.20
2023-01-07T14:31:43.385Z,71.24
2023-01-07T14:34:26.793Z,71.35
2023-01-07T14:37:02.354Z,71.41
2023-01-07T14:39:43.109Z,71.71
2023-01-07T14:42:18.805Z,71.65
2023-01-07T14:44:46.981Z,71.84
2023-01-07T14:47:15.048Z,71.65
2023-01-07T14:49:57.031Z,71.67
2023-01-07T14:52:56.454Z,71.79
2023-01-07T14:55:52.080Z,71.98
2023-01-07T14:58:39.486Z,72.05
2023-01-07T15:01:34.567Z,72.44
2023-01-07T15:04:19.763Z,72.31
2023-01-07T15:06:46.913Z,72.21
2023-01-07T15:09:45.482Z,72.24
2023-01-07T15:12:37.425Z,71.98
2023-01-07T15:15:32.198Z,72.46
2023-01-07T15:17:58.933Z,72.62
2023-01-07T15:20:37.989Z,72.27
2023-01-07T15:23:32.308Z,72.80
2023-01-07T15:26:19.973Z,72.84
2023-01-07T15:29:09.650Z,73.01
2023-01-07T15:31:47.997Z,72.87
2023-01-07T15:34:16.588Z,72.65
2023-01-07T15:36:49.987Z,72.92
2023-01-07T15:39:32.287Z,73.01
2023-01-07T15:42:00.698Z,73.14
2023-01-07T15:44:41.105Z,73.16
2023-01-07T15:47:34.643Z,73.07
2023-01-07T15:50:34.268Z,73.12
2023-01-07T15:53:06.392Z,72.90
2023-01-07T15:55:38.440Z,72.80
2023-01-07T15:58:24.436Z,73.42
2023-01-07T16:00:58.063Z,73.50
2023-01-07T16:03:25.061Z,73.55
2023-01-07T16:05:53.311Z,73.71
2023-01-07T16:08:27.640Z,73.51
2023-01-07T16:11:23.413Z,73.57
2023-01-07T16:13:57.055Z,73.82
2023-01-07T16:16:24.955Z,73.95
2023-01-07T16:18:56.011Z,74.06
2023-01-07T16:21:25.171Z,74.12
2023-01-07T16:23:51.648Z,74.28
2023-01-07T16:26:23.350Z,74.28
2023-01-07T16:28:54.519Z,74.22
2023-01-07T16:31:24.407Z,74.30
2023-01-07T16:33:54.696Z,74.56
2023-01-07T16:36:25.484Z,74.47
2023-01-07T16:38:56.887Z,74.80
2023-01-07T16:41:28.860Z,74.66
2023-01-07T16:44:00.147Z,74.57
2023-01-07T16:46:28.799Z,74.41
2023-01-07T16:49:18.780Z,74.52
2023-01-07T16:51:50.020Z,74.56
2023-01-07T16:54:25.613Z,74.66
2023-01-07T16:56:58.669Z,74.71
2023-01-07T16:59:29.266Z,74.81
2023-01-07T17:01:58.876Z,75.06
2023-01-07T17:04:30.437Z,75.13
2023-01-07T17:06:58.936Z,74.94
2023-01-07T17:09:35.513Z,75.24
2023-01-07T17:12:02.905Z,75.30
2023-01-07T17:14:38.457Z,75.56
2023-01-07T17:17:19.455Z,75.72
2023-01-07T17:20:09.843Z,75.79
2023-01-07T17:22:38.341Z,75.92
2023-01-07T17:25:15.586Z,76.09
2023-01-07T17:27:50.566Z,76.40
2023-01-07T17:30:20.440Z,76.46
2023-01-07T17:32:50.538Z,76.50
2023-01-07T17:35:22.305Z,76.64
2023-01-07T17:37:49.673Z,76.64
2023-01-07T17:40:17.261Z,76.65
2023-01-07T17:43:04.323Z,76.71
2023-01-07T17:45:30.779Z,76.95
2023-01-07T17:47:58.729Z,77.11
2023-01-07T17:50:28.734Z,77.34
2023-01-07T17:52:55.162Z,77.52
2023-01-07T17:55:25.940Z,77.65
2023-01-07T17:57:52.803Z,77.49
2023-01-07T18:00:25.082Z,77.72
2023-01-07T18:02:52.143Z,77.82
2023-01-07T18:05:25.008Z,77.79
2023-01-07T18:07:52.812Z,77.84
2023-01-07T18:10:51.253Z,77.88
2023-01-07T18:13:17.791Z,78.00
2023-01-07T18:15:44.275Z,77.91
2023-01-07T18:18:10.658Z,77.90
2023-01-07T18:20:37.152Z,77.74
2023-01-07T18:23:03.650Z,77.83
2023-01-07T18:25:31.681Z,77.78
2023-01-07T18:27:58.039Z,77.65
2023-01-07T18:30:24.674Z,77.62
2023-01-07T18:32:52.969Z,77.80
2023-01-07T18:35:19.859Z,77.72
2023-01-07T18:37:50.386Z,77.64
2023-01-07T18:40:17.354Z,77.90
2023-01-07T18:42:43.936Z,77.61
2023-01-07T18:45:10.762Z,77.65
2023-01-07T18:47:37.190Z,77.63
2023-01-07T18:50:03.970Z,77.55
2023-01-07T18:52:30.962Z,77.44
2023-01-07T18:54:57.629Z,77.35
2023-01-07T18:57:24.063Z,77.39
2023-01-07T18:59:50.496Z,77.28
2023-01-07T19:02:19.430Z,77.85
2023-01-07T19:04:50.499Z,77.85
2023-01-07T19:07:18.791Z,77.97
2023-01-07T19:09:45.699Z,78.10
2023-01-07T19:12:12.327Z,78.13
2023-01-07T19:14:39.971Z,78.10
2023-01-07T19:17:07.593Z,78.41
2023-01-07T19:19:47.541Z,78.28
2023-01-07T19:22:16.191Z,78.23
2023-01-07T19:24:42.924Z,78.21
2023-01-07T19:27:09.322Z,77.99
2023-01-07T19:29:35.687Z,78.04
2023-01-07T19:32:02.165Z,77.90
2023-01-07T19:34:28.801Z,77.84
2023-01-07T19:36:55.218Z,77.74
2023-01-07T19:39:23.417Z,78.13
2023-01-07T19:41:50.309Z,78.06
2023-01-07T19:44:16.942Z,78.12
2023-01-07T19:46:44.116Z,78.16
2023-01-07T19:49:11.896Z,77.97
2023-01-07T19:51:40.034Z,78.28
2023-01-07T19:54:08.525Z,78.53
2023-01-07T19:56:36.402Z,78.80
2023-01-07T19:59:03.180Z,78.67
2023-01-07T20:01:29.830Z,78.97
2023-01-07T20:03:58.481Z,79.18
2023-01-07T20:06:27.425Z,79.43
2023-01-07T20:08:55.355Z,79.58
2023-01-07T20:11:22.728Z,79.29
2023-01-07T20:13:50.371Z,79.25
2023-01-07T20:16:20.462Z,79.26
2023-01-07T20:18:49.498Z,79.07
2023-01-07T20:21:17.990Z,78.91
2023-01-07T20:23:44.535Z,79.35
2023-01-07T20:26:16.204Z,79.20
2023-01-07T20:28:43.862Z,79.28
2023-01-07T20:31:13.450Z,79.14
2023-01-07T20:33:41.342Z,79.08
2023-01-07T20:36:13.069Z,78.99
2023-01-07T20:38:40.334Z,78.75
2023-01-07T20:41:09.209Z,78.00
2023-01-07T20:43:37.096Z,77.35
2023-01-07T20:46:06.151Z,76.95
2023-01-07T20:48:32.989Z,76.57
2023-01-07T20:50:59.543Z,76.32
2023-01-07T20:53:28.876Z,76.23
2023-01-07T20:55:56.718Z,76.09
2023-01-07T20:58:23.461Z,75.42
2023-01-07T21:00:49.862Z,75.83
2023-01-07T21:03:16.413Z,75.16
2023-01-07T21:05:43.446Z,75.23
2023-01-07T21:08:10.300Z,75.24
2023-01-07T21:10:38.024Z,75.11
2023-01-07T21:13:04.935Z,74.91
2023-01-07T21:15:31.792Z,74.82
2023-01-07T21:17:58.152Z,75.29
2023-01-07T21:20:24.653Z,74.99
2023-01-07T21:22:51.030Z,75.21
2023-01-07T21:25:17.684Z,75.17
2023-01-07T21:27:44.165Z,75.63
2023-01-07T21:30:16.396Z,75.27
2023-01-07T21:32:43.148Z,75.28
2023-01-07T21:35:11.517Z,75.34
2023-01-07T21:37:38.670Z,75.37
2023-01-07T21:40:06.487Z,75.55
2023-01-07T21:42:35.054Z,75.35
2023-01-07T21:45:01.448Z,75.38
2023-01-07T21:47:27.831Z,75.60
2023-01-07T21:49:54.299Z,76.14
2023-01-07T21:52:20.727Z,75.67
2023-01-07T21:54:47.280Z,76.09
2023-01-07T21:57:13.678Z,75.99
2023-01-07T21:59:40.043Z,75.73
2023-01-07T22:02:06.786Z,75.94
2023-01-07T22:04:34.812Z,75.96
2023-01-07T22:07:01.225Z,75.74
2023-01-07T22:09:27.651Z,76.41
2023-01-07T22:11:54.046Z,76.32
2023-01-07T22:14:20.921Z,76.15
2023-01-07T22:16:49.174Z,75.77
2023-01-07T22:19:16.070Z,76.21
2023-01-07T22:21:42.448Z,76.09
2023-01-07T22:24:09.459Z,76.53
2023-01-07T22:26:36.279Z,76.20
2023-01-07T22:29:07.017Z,76.39
2023-01-07T22:31:38.382Z,76.78
2023-01-07T22:34:06.836Z,76.78
2023-01-07T22:36:46.139Z,76.80
2023-01-07T22:39:21.088Z,76.96
2023-01-07T22:41:48.783Z,77.00
2023-01-07T22:44:23.835Z,76.77
2023-01-07T22:46:51.259Z,77.02
2023-01-07T22:49:18.311Z,77.24
2023-01-07T22:51:47.800Z,77.34
2023-01-07T22:54:16.527Z,77.43
2023-01-07T22:56:44.476Z,77.44
2023-01-07T22:59:11.066Z,77.55
2023-01-07T23:01:39.844Z,77.69
2023-01-07T23:04:06.388Z,77.69
2023-01-07T23:06:32.804Z,77.88
2023-01-07T23:08:59.372Z,78.01
2023-01-07T23:11:44.365Z,78.37
2023-01-07T23:14:11.072Z,78.49
2023-01-07T23:16:37.755Z,78.39
2023-01-07T23:19:04.558Z,78.79
2023-01-07T23:21:34.384Z,78.75
2023-01-07T23:24:00.767Z,79.29
2023-01-07T23:26:27.273Z,79.11
2023-01-07T23:28:53.656Z,79.52
2023-01-07T23:31:20.401Z,79.64
2023-01-07T23:33:47.260Z,80.03
2023-01-07T23:36:13.768Z,80.16
2023-01-07T23:38:40.097Z,80.10
2023-01-07T23:41:09.067Z,80.22
2023-01-07T23:43:35.511Z,80.34
2023-01-07T23:46:04.126Z,80.49
2023-01-07T23:48:32.477Z,80.47
2023-01-07T23:51:12.966Z,80.80
2023-01-07T23:53:40.196Z,81.37
2023-01-07T23:56:07.696Z,81.49
2023-01-07T23:58:35.225Z,81.81
